sensor_id;sensor_type;location;lat;lon;timestamp;pressure;altitude;pressure_sealevel;temperature;humidity
15932;BME280;8065;49.520;11.284;2023-02-19T00:02:07;97797.38;;;13.38;77.33
15932;BME280;8065;49.520;11.284;2023-02-19T00:04:38;97792.09;;;13.50;77.41
15932;BME280;8065;49.520;11.284;2023-02-19T00:07:04;97797.31;;;13.47;77.09
15932;BME280;8065;49.520;11.284;2023-02-19T00:09:31;97786.97;;;13.45;77.49
15932;BME280;8065;49.520;11.284;2023-02-19T00:11:57;97802.66;;;13.47;77.45
15932;BME280;8065;49.520;11.284;2023-02-19T00:14:24;97790.81;;;13.35;78.06
15932;BME280;8065;49.520;11.284;2023-02-19T00:16:50;97796.16;;;13.35;77.76
15932;BME280;8065;49.520;11.284;2023-02-19T00:19:18;97802.19;;;13.44;77.70
15932;BME280;8065;49.520;11.284;2023-02-19T00:21:47;97789.50;;;13.41;78.10
15932;BME280;8065;49.520;11.284;2023-02-19T00:24:14;97793.13;;;13.58;77.48
15932;BME280;8065;49.520;11.284;2023-02-19T00:26:41;97787.53;;;13.51;78.11
15932;BME280;8065;49.520;11.284;2023-02-19T00:29:10;97787.41;;;13.47;77.92
15932;BME280;8065;49.520;11.284;2023-02-19T00:31:38;97784.53;;;13.52;78.05
15932;BME280;8065;49.520;11.284;2023-02-19T00:34:05;97782.44;;;13.58;78.16
15932;BME280;8065;49.520;11.284;2023-02-19T00:36:33;97800.03;;;13.59;78.23
15932;BME280;8065;49.520;11.284;2023-02-19T00:39:01;97787.66;;;13.54;77.94
15932;BME280;8065;49.520;11.284;2023-02-19T00:41:28;97792.34;;;13.57;78.16
15932;BME280;8065;49.520;11.284;2023-02-19T00:43:56;97790.00;;;13.56;77.69
15932;BME280;8065;49.520;11.284;2023-02-19T00:46:25;97778.41;;;13.52;77.97
15932;BME280;8065;49.520;11.284;2023-02-19T00:48:52;97773.19;;;13.55;77.74
15932;BME280;8065;49.520;11.284;2023-02-19T00:51:20;97768.63;;;13.56;78.02
15932;BME280;8065;49.520;11.284;2023-02-19T00:53:47;97761.00;;;13.33;78.84
15932;BME280;8065;49.520;11.284;2023-02-19T00:56:16;97770.13;;;13.32;79.20
15932;BME280;8065;49.520;11.284;2023-02-19T00:58:42;97764.66;;;13.29;79.42
15932;BME280;8065;49.520;11.284;2023-02-19T01:01:09;97759.97;;;13.05;80.71
15932;BME280;8065;49.520;11.284;2023-02-19T01:03:37;97767.75;;;13.10;80.68
15932;BME280;8065;49.520;11.284;2023-02-19T01:06:05;97768.50;;;13.19;80.72
15932;BME280;8065;49.520;11.284;2023-02-19T01:08:32;97758.78;;;13.14;81.47
15932;BME280;8065;49.520;11.284;2023-02-19T01:11:00;97753.47;;;12.94;83.43
15932;BME280;8065;49.520;11.284;2023-02-19T01:13:28;97748.38;;;13.01;83.63
15932;BME280;8065;49.520;11.284;2023-02-19T01:16:02;97747.88;;;12.87;84.65
15932;BME280;8065;49.520;11.284;2023-02-19T01:18:29;97744.19;;;13.00;84.17
15932;BME280;8065;49.520;11.284;2023-02-19T01:20:55;97745.03;;;12.92;85.07
15932;BME280;8065;49.520;11.284;2023-02-19T01:23:22;97757.00;;;12.86;85.30
15932;BME280;8065;49.520;11.284;2023-02-19T01:25:48;97754.91;;;12.91;84.83
15932;BME280;8065;49.520;11.284;2023-02-19T01:28:15;97754.19;;;12.82;85.90
15932;BME280;8065;49.520;11.284;2023-02-19T01:30:43;97755.88;;;12.87;85.55
15932;BME280;8065;49.520;11.284;2023-02-19T01:33:09;97739.16;;;12.77;85.77
15932;BME280;8065;49.520;11.284;2023-02-19T01:35:37;97737.59;;;12.76;85.59
15932;BME280;8065;49.520;11.284;2023-02-19T01:38:04;97737.41;;;12.61;86.85
15932;BME280;8065;49.520;11.284;2023-02-19T01:40:32;97722.59;;;12.72;86.27
15932;BME280;8065;49.520;11.284;2023-02-19T01:42:59;97716.22;;;12.64;86.76
15932;BME280;8065;49.520;11.284;2023-02-19T01:45:29;97703.53;;;12.61;86.85
15932;BME280;8065;49.520;11.284;2023-02-19T01:48:07;97694.69;;;12.69;86.51
15932;BME280;8065;49.520;11.284;2023-02-19T01:50:37;97706.00;;;12.66;86.75
15932;BME280;8065;49.520;11.284;2023-02-19T01:53:07;97703.41;;;12.58;86.68
15932;BME280;8065;49.520;11.284;2023-02-19T01:55:35;97700.66;;;12.66;86.35
15932;BME280;8065;49.520;11.284;2023-02-19T01:58:02;97700.34;;;12.68;86.46
15932;BME280;8065;49.520;11.284;2023-02-19T02:00:29;97694.56;;;12.66;86.70
15932;BME280;8065;49.520;11.284;2023-02-19T02:02:57;97697.53;;;12.64;86.45
15932;BME280;8065;49.520;11.284;2023-02-19T02:05:36;97693.66;;;12.62;86.18
15932;BME280;8065;49.520;11.284;2023-02-19T02:08:03;97702.88;;;12.64;86.57
15932;BME280;8065;49.520;11.284;2023-02-19T02:10:47;97691.44;;;12.64;86.61
15932;BME280;8065;49.520;11.284;2023-02-19T02:13:14;97691.56;;;12.67;86.11
15932;BME280;8065;49.520;11.284;2023-02-19T02:15:46;97688.25;;;12.70;86.31
15932;BME280;8065;49.520;11.284;2023-02-19T02:18:22;97695.47;;;12.70;85.96
15932;BME280;8065;49.520;11.284;2023-02-19T02:21:09;97697.88;;;12.63;86.57
15932;BME280;8065;49.520;11.284;2023-02-19T02:23:51;97700.78;;;12.49;86.93
15932;BME280;8065;49.520;11.284;2023-02-19T02:26:31;97684.16;;;12.52;86.89
15932;BME280;8065;49.520;11.284;2023-02-19T02:29:13;97682.44;;;12.27;87.95
15932;BME280;8065;49.520;11.284;2023-02-19T02:31:48;97685.25;;;12.51;86.79
15932;BME280;8065;49.520;11.284;2023-02-19T02:34:18;97685.56;;;12.50;87.04
15932;BME280;8065;49.520;11.284;2023-02-19T02:36:48;97672.13;;;12.46;87.38
15932;BME280;8065;49.520;11.284;2023-02-19T02:39:19;97672.31;;;12.41;87.27
15932;BME280;8065;49.520;11.284;2023-02-19T02:41:49;97671.47;;;12.49;86.81
15932;BME280;8065;49.520;11.284;2023-02-19T02:44:37;97657.50;;;12.52;86.87
15932;BME280;8065;49.520;11.284;2023-02-19T02:47:05;97662.56;;;12.45;86.71
15932;BME280;8065;49.520;11.284;2023-02-19T02:49:53;97668.41;;;12.38;87.60
15932;BME280;8065;49.520;11.284;2023-02-19T02:52:31;97666.47;;;12.47;87.38
15932;BME280;8065;49.520;11.284;2023-02-19T02:55:12;97673.22;;;12.45;86.91
15932;BME280;8065;49.520;11.284;2023-02-19T02:57:38;97660.09;;;12.40;87.27
15932;BME280;8065;49.520;11.284;2023-02-19T03:00:06;97656.31;;;12.41;87.89
15932;BME280;8065;49.520;11.284;2023-02-19T03:02:34;97663.59;;;12.32;88.13
15932;BME280;8065;49.520;11.284;2023-02-19T03:05:02;97653.91;;;12.27;87.91
15932;BME280;8065;49.520;11.284;2023-02-19T03:07:52;97655.97;;;12.22;88.31
15932;BME280;8065;49.520;11.284;2023-02-19T03:10:24;97650.72;;;12.34;87.92
15932;BME280;8065;49.520;11.284;2023-02-19T03:12:53;97652.09;;;12.40;87.32
15932;BME280;8065;49.520;11.284;2023-02-19T03:15:51;97652.34;;;12.47;87.29
15932;BME280;8065;49.520;11.284;2023-02-19T03:18:40;97661.25;;;12.51;87.08
15932;BME280;8065;49.520;11.284;2023-02-19T03:21:25;97659.38;;;12.52;86.45
15932;BME280;8065;49.520;11.284;2023-02-19T03:23:54;97653.00;;;12.44;86.74
15932;BME280;8065;49.520;11.284;2023-02-19T03:26:40;97654.38;;;12.50;86.54
15932;BME280;8065;49.520;11.284;2023-02-19T03:29:09;97653.19;;;12.39;86.67
15932;BME280;8065;49.520;11.284;2023-02-19T03:31:52;97648.13;;;12.46;86.41
15932;BME280;8065;49.520;11.284;2023-02-19T03:34:24;97651.25;;;12.48;86.43
15932;BME280;8065;49.520;11.284;2023-02-19T03:36:55;97641.56;;;12.43;86.18
15932;BME280;8065;49.520;11.284;2023-02-19T03:39:24;97634.75;;;12.55;85.44
15932;BME280;8065;49.520;11.284;2023-02-19T03:41:57;97634.81;;;12.46;86.29
15932;BME280;8065;49.520;11.284;2023-02-19T03:44:34;97632.66;;;12.19;86.79
15932;BME280;8065;49.520;11.284;2023-02-19T03:47:08;97647.06;;;12.18;86.70
15932;BME280;8065;49.520;11.284;2023-02-19T03:49:43;97634.53;;;12.39;86.31
15932;BME280;8065;49.520;11.284;2023-02-19T03:52:14;97629.16;;;12.47;85.82
15932;BME280;8065;49.520;11.284;2023-02-19T03:54:47;97629.28;;;12.51;85.62
15932;BME280;8065;49.520;11.284;2023-02-19T03:57:19;97628.50;;;12.30;86.25
15932;BME280;8065;49.520;11.284;2023-02-19T03:59:54;97635.00;;;12.41;85.65
15932;BME280;8065;49.520;11.284;2023-02-19T04:02:27;97633.25;;;12.45;85.69
15932;BME280;8065;49.520;11.284;2023-02-19T04:05:02;97647.03;;;12.47;85.58
15932;BME280;8065;49.520;11.284;2023-02-19T04:07:32;97631.34;;;12.25;86.28
15932;BME280;8065;49.520;11.284;2023-02-19T04:10:00;97627.59;;;12.26;85.67
15932;BME280;8065;49.520;11.284;2023-02-19T04:12:28;97635.47;;;12.43;85.12
15932;BME280;8065;49.520;11.284;2023-02-19T04:14:58;97647.94;;;12.51;85.20
15932;BME280;8065;49.520;11.284;2023-02-19T04:17:30;97637.72;;;12.53;84.70
15932;BME280;8065;49.520;11.284;2023-02-19T04:20:02;97653.19;;;12.39;84.72
15932;BME280;8065;49.520;11.284;2023-02-19T04:22:31;97649.94;;;12.33;84.98
15932;BME280;8065;49.520;11.284;2023-02-19T04:24:58;97660.53;;;12.42;84.63
15932;BME280;8065;49.520;11.284;2023-02-19T04:27:25;97659.13;;;12.44;84.75
15932;BME280;8065;49.520;11.284;2023-02-19T04:29:52;97654.38;;;12.50;84.39
15932;BME280;8065;49.520;11.284;2023-02-19T04:32:18;97645.38;;;12.75;83.64
15932;BME280;8065;49.520;11.284;2023-02-19T04:34:45;97650.72;;;12.75;83.02
15932;BME280;8065;49.520;11.284;2023-02-19T04:37:12;97647.59;;;12.73;83.53
15932;BME280;8065;49.520;11.284;2023-02-19T04:39:39;97652.56;;;12.63;83.56
15932;BME280;8065;49.520;11.284;2023-02-19T04:42:05;97654.09;;;12.64;83.14
15932;BME280;8065;49.520;11.284;2023-02-19T04:44:32;97644.22;;;12.64;83.40
15932;BME280;8065;49.520;11.284;2023-02-19T04:46:59;97656.84;;;12.55;83.64
15932;BME280;8065;49.520;11.284;2023-02-19T04:49:26;97653.59;;;12.70;83.23
15932;BME280;8065;49.520;11.284;2023-02-19T04:51:52;97649.28;;;12.78;82.97
15932;BME280;8065;49.520;11.284;2023-02-19T04:54:20;97650.72;;;12.75;82.62
15932;BME280;8065;49.520;11.284;2023-02-19T04:56:46;97663.47;;;12.70;83.07
15932;BME280;8065;49.520;11.284;2023-02-19T04:59:14;97661.91;;;12.48;83.83
15932;BME280;8065;49.520;11.284;2023-02-19T05:01:41;97664.38;;;12.53;83.36
15932;BME280;8065;49.520;11.284;2023-02-19T05:04:07;97661.31;;;12.42;83.28
15932;BME280;8065;49.520;11.284;2023-02-19T05:06:34;97672.06;;;12.55;83.17
15932;BME280;8065;49.520;11.284;2023-02-19T05:09:00;97667.50;;;12.55;83.20
15932;BME280;8065;49.520;11.284;2023-02-19T05:11:28;97665.28;;;12.57;82.80
15932;BME280;8065;49.520;11.284;2023-02-19T05:13:54;97657.88;;;12.42;83.47
15932;BME280;8065;49.520;11.284;2023-02-19T05:16:21;97663.66;;;12.44;83.19
15932;BME280;8065;49.520;11.284;2023-02-19T05:18:47;97659.91;;;12.45;83.22
15932;BME280;8065;49.520;11.284;2023-02-19T05:21:14;97647.53;;;12.20;84.34
15932;BME280;8065;49.520;11.284;2023-02-19T05:23:41;97647.69;;;12.44;83.51
15932;BME280;8065;49.520;11.284;2023-02-19T05:26:10;97667.31;;;12.60;83.24
15932;BME280;8065;49.520;11.284;2023-02-19T05:28:38;97667.31;;;12.60;83.01
15932;BME280;8065;49.520;11.284;2023-02-19T05:31:06;97669.06;;;12.56;83.20
15932;BME280;8065;49.520;11.284;2023-02-19T05:33:34;97656.97;;;12.59;83.28
15932;BME280;8065;49.520;11.284;2023-02-19T05:36:05;97660.00;;;12.28;83.68
15932;BME280;8065;49.520;11.284;2023-02-19T05:38:32;97657.22;;;12.45;83.70
15932;BME280;8065;49.520;11.284;2023-02-19T05:41:06;97653.84;;;12.36;83.45
15932;BME280;8065;49.520;11.284;2023-02-19T05:43:33;97650.72;;;12.34;83.71
15932;BME280;8065;49.520;11.284;2023-02-19T05:46:01;97646.31;;;12.38;83.54
15932;BME280;8065;49.520;11.284;2023-02-19T05:48:27;97657.22;;;12.45;83.22
15932;BME280;8065;49.520;11.284;2023-02-19T05:50:53;97651.63;;;12.38;83.11
15932;BME280;8065;49.520;11.284;2023-02-19T05:53:20;97657.09;;;12.41;82.66
15932;BME280;8065;49.520;11.284;2023-02-19T05:55:46;97662.81;;;12.52;82.31
15932;BME280;8065;49.520;11.284;2023-02-19T05:58:13;97664.63;;;12.39;82.81
15932;BME280;8065;49.520;11.284;2023-02-19T06:00:39;97667.19;;;12.57;81.93
15932;BME280;8065;49.520;11.284;2023-02-19T06:03:07;97669.44;;;12.67;81.44
15932;BME280;8065;49.520;11.284;2023-02-19T06:05:33;97667.56;;;12.67;81.30
15932;BME280;8065;49.520;11.284;2023-02-19T06:08:00;97662.28;;;12.79;80.96
15932;BME280;8065;49.520;11.284;2023-02-19T06:10:26;97676.97;;;12.86;80.52
15932;BME280;8065;49.520;11.284;2023-02-19T06:12:53;97656.06;;;12.75;80.59
15932;BME280;8065;49.520;11.284;2023-02-19T06:15:20;97672.97;;;12.38;82.12
15932;BME280;8065;49.520;11.284;2023-02-19T06:17:46;97662.81;;;12.52;81.81
15932;BME280;8065;49.520;11.284;2023-02-19T06:20:15;97667.94;;;12.78;80.55
15932;BME280;8065;49.520;11.284;2023-02-19T06:22:41;97669.31;;;12.63;81.46
15932;BME280;8065;49.520;11.284;2023-02-19T06:25:08;97664.19;;;12.58;81.12
15932;BME280;8065;49.520;11.284;2023-02-19T06:27:37;97670.50;;;12.74;80.61
15932;BME280;8065;49.520;11.284;2023-02-19T06:30:04;97683.81;;;12.74;80.71
15932;BME280;8065;49.520;11.284;2023-02-19T06:32:30;97679.41;;;12.78;80.53
15932;BME280;8065;49.520;11.284;2023-02-19T06:34:57;97690.84;;;12.79;80.26
15932;BME280;8065;49.520;11.284;2023-02-19T06:37:24;97688.31;;;12.83;80.43
15932;BME280;8065;49.520;11.284;2023-02-19T06:39:51;97686.75;;;12.82;80.27
15932;BME280;8065;49.520;11.284;2023-02-19T06:42:17;97699.38;;;12.72;80.83
15932;BME280;8065;49.520;11.284;2023-02-19T06:44:44;97701.56;;;12.70;80.84
15932;BME280;8065;49.520;11.284;2023-02-19T06:47:10;97692.22;;;12.64;81.14
15932;BME280;8065;49.520;11.284;2023-02-19T06:49:37;97705.97;;;12.45;81.70
15932;BME280;8065;49.520;11.284;2023-02-19T06:52:04;97701.50;;;12.58;81.00
15932;BME280;8065;49.520;11.284;2023-02-19T06:54:32;97707.44;;;12.64;81.39
15932;BME280;8065;49.520;11.284;2023-02-19T06:56:59;97705.75;;;12.80;80.35
15932;BME280;8065;49.520;11.284;2023-02-19T06:59:26;97708.09;;;12.82;80.51
15932;BME280;8065;49.520;11.284;2023-02-19T07:01:52;97698.91;;;12.70;81.03
15932;BME280;8065;49.520;11.284;2023-02-19T07:04:19;97706.50;;;12.60;80.41
15932;BME280;8065;49.520;11.284;2023-02-19T07:06:45;97708.09;;;12.82;79.77
15932;BME280;8065;49.520;11.284;2023-02-19T07:09:12;97704.06;;;12.75;80.57
15932;BME280;8065;49.520;11.284;2023-02-19T07:11:39;97712.31;;;12.83;80.34
15932;BME280;8065;49.520;11.284;2023-02-19T07:14:07;97718.28;;;12.79;79.97
15932;BME280;8065;49.520;11.284;2023-02-19T07:16:39;97718.94;;;12.76;80.45
15932;BME280;8065;49.520;11.284;2023-02-19T07:19:05;97721.88;;;12.84;79.62
15932;BME280;8065;49.520;11.284;2023-02-19T07:21:31;97739.41;;;12.64;80.25
15932;BME280;8065;49.520;11.284;2023-02-19T07:24:02;97748.53;;;12.63;80.32
15932;BME280;8065;49.520;11.284;2023-02-19T07:26:28;97733.84;;;12.77;80.14
15932;BME280;8065;49.520;11.284;2023-02-19T07:28:56;97735.84;;;12.80;79.50
15932;BME280;8065;49.520;11.284;2023-02-19T07:31:23;97746.47;;;12.89;79.13
15932;BME280;8065;49.520;11.284;2023-02-19T07:33:50;97744.16;;;12.58;80.37
15932;BME280;8065;49.520;11.284;2023-02-19T07:36:17;97740.19;;;12.64;80.21
15932;BME280;8065;49.520;11.284;2023-02-19T07:38:44;97742.50;;;12.74;80.10
15932;BME280;8065;49.520;11.284;2023-02-19T07:41:11;97742.81;;;12.73;79.68
15932;BME280;8065;49.520;11.284;2023-02-19T07:43:37;97746.06;;;12.78;79.02
15932;BME280;8065;49.520;11.284;2023-02-19T07:46:07;97742.41;;;12.62;80.04
15932;BME280;8065;49.520;11.284;2023-02-19T07:48:34;97760.25;;;12.70;79.38
15932;BME280;8065;49.520;11.284;2023-02-19T07:51:02;97767.13;;;12.71;79.19
15932;BME280;8065;49.520;11.284;2023-02-19T07:53:28;97745.41;;;12.82;79.19
15932;BME280;8065;49.520;11.284;2023-02-19T07:55:58;97761.34;;;12.69;79.27
15932;BME280;8065;49.520;11.284;2023-02-19T07:58:25;97759.50;;;12.61;79.28
15932;BME280;8065;49.520;11.284;2023-02-19T08:00:52;97763.94;;;12.78;78.64
15932;BME280;8065;49.520;11.284;2023-02-19T08:03:19;97755.16;;;12.77;79.15
15932;BME280;8065;49.520;11.284;2023-02-19T08:05:45;97767.22;;;12.84;79.13
15932;BME280;8065;49.520;11.284;2023-02-19T08:08:14;97765.72;;;12.95;78.81
15932;BME280;8065;49.520;11.284;2023-02-19T08:10:41;97771.56;;;12.88;79.51
15932;BME280;8065;49.520;11.284;2023-02-19T08:13:26;97769.22;;;12.87;79.32
15932;BME280;8065;49.520;11.284;2023-02-19T08:15:55;97774.66;;;12.69;79.72
15932;BME280;8065;49.520;11.284;2023-02-19T08:18:34;97777.69;;;12.89;78.81
15932;BME280;8065;49.520;11.284;2023-02-19T08:21:01;97785.03;;;12.92;78.63
15932;BME280;8065;49.520;11.284;2023-02-19T08:23:28;97792.22;;;12.70;79.20
15932;BME280;8065;49.520;11.284;2023-02-19T08:25:57;97785.63;;;12.97;78.41
15932;BME280;8065;49.520;11.284;2023-02-19T08:28:24;97785.88;;;13.25;77.60
15932;BME280;8065;49.520;11.284;2023-02-19T08:30:50;97789.63;;;13.03;77.86
15932;BME280;8065;49.520;11.284;2023-02-19T08:33:19;97790.31;;;13.21;77.23
15932;BME280;8065;49.520;11.284;2023-02-19T08:35:47;97816.84;;;12.97;77.19
15932;BME280;8065;49.520;11.284;2023-02-19T08:38:14;97785.88;;;12.84;78.47
15932;BME280;8065;49.520;11.284;2023-02-19T08:40:41;97811.38;;;13.14;77.37
15932;BME280;8065;49.520;11.284;2023-02-19T08:43:09;97811.63;;;12.79;77.99
15932;BME280;8065;49.520;11.284;2023-02-19T08:45:37;97820.75;;;13.20;77.03
15932;BME280;8065;49.520;11.284;2023-02-19T08:48:03;97807.97;;;13.05;77.44
15932;BME280;8065;49.520;11.284;2023-02-19T08:50:30;97815.03;;;13.30;76.82
15932;BME280;8065;49.520;11.284;2023-02-19T08:52:59;97817.00;;;13.21;76.88
15932;BME280;8065;49.520;11.284;2023-02-19T08:55:25;97826.09;;;13.20;76.99
15932;BME280;8065;49.520;11.284;2023-02-19T08:57:52;97834.28;;;12.94;77.58
15932;BME280;8065;49.520;11.284;2023-02-19T09:00:18;97836.94;;;13.15;77.23
15932;BME280;8065;49.520;11.284;2023-02-19T09:02:45;97828.53;;;13.04;77.50
15932;BME280;8065;49.520;11.284;2023-02-19T09:05:12;97828.78;;;13.20;76.79
15932;BME280;8065;49.520;11.284;2023-02-19T09:07:39;97841.47;;;13.23;76.68
15932;BME280;8065;49.520;11.284;2023-02-19T09:10:09;97827.66;;;13.21;76.86
15932;BME280;8065;49.520;11.284;2023-02-19T09:12:35;97834.50;;;13.31;76.23
15932;BME280;8065;49.520;11.284;2023-02-19T09:15:03;97836.97;;;13.36;76.44
15932;BME280;8065;49.520;11.284;2023-02-19T09:17:29;97842.09;;;12.99;76.86
15932;BME280;8065;49.520;11.284;2023-02-19T09:19:56;97851.13;;;13.07;76.73
15932;BME280;8065;49.520;11.284;2023-02-19T09:22:22;97863.31;;;12.96;76.48
15932;BME280;8065;49.520;11.284;2023-02-19T09:24:49;97861.16;;;13.10;77.24
15932;BME280;8065;49.520;11.284;2023-02-19T09:27:18;97855.91;;;13.22;75.96
15932;BME280;8065;49.520;11.284;2023-02-19T09:29:45;97857.75;;;13.30;76.33
15932;BME280;8065;49.520;11.284;2023-02-19T09:32:12;97867.75;;;13.33;76.08
15932;BME280;8065;49.520;11.284;2023-02-19T09:34:38;97860.72;;;13.29;76.67
15932;BME280;8065;49.520;11.284;2023-02-19T09:37:05;97865.94;;;13.46;76.12
15932;BME280;8065;49.520;11.284;2023-02-19T09:39:33;97874.78;;;13.17;76.74
15932;BME280;8065;49.520;11.284;2023-02-19T09:42:02;97868.88;;;13.32;76.50
15932;BME280;8065;49.520;11.284;2023-02-19T09:44:32;97877.41;;;13.47;76.13
15932;BME280;8065;49.520;11.284;2023-02-19T09:47:00;97897.59;;;13.35;76.25
15932;BME280;8065;49.520;11.284;2023-02-19T09:49:30;97883.53;;;13.47;75.61
15932;BME280;8065;49.520;11.284;2023-02-19T09:52:02;97879.47;;;13.41;76.13
15932;BME280;8065;49.520;11.284;2023-02-19T09:54:32;97885.47;;;13.17;76.35
15932;BME280;8065;49.520;11.284;2023-02-19T09:57:00;97887.28;;;13.25;76.26
15932;BME280;8065;49.520;11.284;2023-02-19T09:59:30;97892.88;;;13.32;76.61
15932;BME280;8065;49.520;11.284;2023-02-19T10:02:02;97893.66;;;13.33;76.15
15932;BME280;8065;49.520;11.284;2023-02-19T10:04:29;97886.91;;;13.35;75.76
15932;BME280;8065;49.520;11.284;2023-02-19T10:06:57;97892.06;;;13.11;77.10
15932;BME280;8065;49.520;11.284;2023-02-19T10:09:29;97872.00;;;13.34;76.81
15932;BME280;8065;49.520;11.284;2023-02-19T10:11:57;97885.22;;;13.31;77.20
15932;BME280;8065;49.520;11.284;2023-02-19T10:14:29;97889.75;;;13.30;77.71
15932;BME280;8065;49.520;11.284;2023-02-19T10:17:03;97896.91;;;13.18;78.63
15932;BME280;8065;49.520;11.284;2023-02-19T10:19:31;97887.81;;;13.39;77.65
15932;BME280;8065;49.520;11.284;2023-02-19T10:21:58;97896.03;;;13.34;77.63
15932;BME280;8065;49.520;11.284;2023-02-19T10:24:27;97900.78;;;13.50;77.27
15932;BME280;8065;49.520;11.284;2023-02-19T10:26:54;97901.34;;;13.34;77.85
15932;BME280;8065;49.520;11.284;2023-02-19T10:29:21;97913.66;;;13.27;78.26
15932;BME280;8065;49.520;11.284;2023-02-19T10:32:14;97908.72;;;13.37;77.85
15932;BME280;8065;49.520;11.284;2023-02-19T10:34:43;97916.88;;;13.62;77.04
15932;BME280;8065;49.520;11.284;2023-02-19T10:37:12;97925.78;;;13.66;76.92
15932;BME280;8065;49.520;11.284;2023-02-19T10:39:41;97928.13;;;13.47;76.63
15932;BME280;8065;49.520;11.284;2023-02-19T10:42:19;97895.50;;;13.41;77.28
15932;BME280;8065;49.520;11.284;2023-02-19T10:44:49;97922.59;;;13.52;76.83
15932;BME280;8065;49.520;11.284;2023-02-19T10:47:20;97917.00;;;13.65;76.77
15932;BME280;8065;49.520;11.284;2023-02-19T10:49:49;97915.81;;;13.54;76.89
15932;BME280;8065;49.520;11.284;2023-02-19T10:52:19;97923.38;;;13.52;76.20
15932;BME280;8065;49.520;11.284;2023-02-19T10:54:50;97922.41;;;13.57;76.04
15932;BME280;8065;49.520;11.284;2023-02-19T10:57:24;97925.06;;;13.57;76.33
15932;BME280;8065;49.520;11.284;2023-02-19T10:59:56;97922.66;;;13.64;75.78
15932;BME280;8065;49.520;11.284;2023-02-19T11:02:24;97929.09;;;13.63;76.29
15932;BME280;8065;49.520;11.284;2023-02-19T11:05:05;97931.56;;;13.26;76.24
15932;BME280;8065;49.520;11.284;2023-02-19T11:07:32;97934.44;;;13.42;76.03
15932;BME280;8065;49.520;11.284;2023-02-19T11:09:59;97940.09;;;13.40;75.93
15932;BME280;8065;49.520;11.284;2023-02-19T11:12:28;97946.22;;;13.41;76.85
15932;BME280;8065;49.520;11.284;2023-02-19T11:14:56;97935.34;;;13.46;76.85
15932;BME280;8065;49.520;11.284;2023-02-19T11:17:28;97943.59;;;13.32;78.43
15932;BME280;8065;49.520;11.284;2023-02-19T11:19:56;97950.97;;;13.35;78.30
15932;BME280;8065;49.520;11.284;2023-02-19T11:22:29;97951.50;;;13.50;78.30
15932;BME280;8065;49.520;11.284;2023-02-19T11:25:01;97950.78;;;13.40;79.16
15932;BME280;8065;49.520;11.284;2023-02-19T11:27:30;97958.78;;;13.40;79.11
15932;BME280;8065;49.520;11.284;2023-02-19T11:30:21;97951.75;;;13.36;79.58
15932;BME280;8065;49.520;11.284;2023-02-19T11:32:55;97960.88;;;13.56;78.98
15932;BME280;8065;49.520;11.284;2023-02-19T11:35:22;97958.41;;;13.51;79.68
15932;BME280;8065;49.520;11.284;2023-02-19T11:37:54;97958.88;;;13.53;79.62
15932;BME280;8065;49.520;11.284;2023-02-19T11:40:27;97961.41;;;13.70;78.90
15932;BME280;8065;49.520;11.284;2023-02-19T11:43:06;97971.56;;;13.76;78.76
15932;BME280;8065;49.520;11.284;2023-02-19T11:45:41;97976.59;;;13.78;78.63
15932;BME280;8065;49.520;11.284;2023-02-19T11:48:30;97972.72;;;13.88;77.80
15932;BME280;8065;49.520;11.284;2023-02-19T11:51:14;97984.88;;;13.85;77.86
15932;BME280;8065;49.520;11.284;2023-02-19T11:53:46;97978.44;;;13.98;77.31
15932;BME280;8065;49.520;11.284;2023-02-19T11:56:15;97971.41;;;13.94;77.00
15932;BME280;8065;49.520;11.284;2023-02-19T11:58:57;97974.97;;;13.86;77.83
15932;BME280;8065;49.520;11.284;2023-02-19T12:01:34;97982.13;;;13.73;77.50
15932;BME280;8065;49.520;11.284;2023-02-19T12:07:08;97971.41;;;13.31;78.63
15932;BME280;8065;49.520;11.284;2023-02-19T12:09:52;97973.22;;;13.10;79.17
15932;BME280;8065;49.520;11.284;2023-02-19T12:12:39;97980.94;;;13.41;78.20
15932;BME280;8065;49.520;11.284;2023-02-19T12:15:18;97990.44;;;13.51;77.74
15932;BME280;8065;49.520;11.284;2023-02-19T12:18:08;97992.19;;;13.47;77.89
15932;BME280;8065;49.520;11.284;2023-02-19T12:20:48;97988.34;;;13.35;78.10
15932;BME280;8065;49.520;11.284;2023-02-19T12:23:43;97982.91;;;13.53;78.03
15932;BME280;8065;49.520;11.284;2023-02-19T12:26:20;97982.06;;;13.31;78.39
15932;BME280;8065;49.520;11.284;2023-02-19T12:29:03;97991.84;;;13.27;78.74
15932;BME280;8065;49.520;11.284;2023-02-19T12:32:01;97983.53;;;13.50;78.09
15932;BME280;8065;49.520;11.284;2023-02-19T12:34:47;97989.53;;;13.47;77.93
15932;BME280;8065;49.520;11.284;2023-02-19T12:37:31;97978.53;;;13.48;77.93
15932;BME280;8065;49.520;11.284;2023-02-19T12:40:14;97976.19;;;13.47;77.93
15932;BME280;8065;49.520;11.284;2023-02-19T12:42:53;97976.78;;;13.52;77.55
15932;BME280;8065;49.520;11.284;2023-02-19T12:45:26;97982.72;;;13.58;78.42
15932;BME280;8065;49.520;11.284;2023-02-19T12:48:00;97986.94;;;13.59;78.47
15932;BME280;8065;49.520;11.284;2023-02-19T12:50:30;97993.00;;;13.68;78.60
15932;BME280;8065;49.520;11.284;2023-02-19T12:53:01;97991.19;;;13.60;78.96
15932;BME280;8065;49.520;11.284;2023-02-19T12:55:30;97996.84;;;13.79;78.43
15932;BME280;8065;49.520;11.284;2023-02-19T12:58:00;97993.44;;;13.91;78.35
15932;BME280;8065;49.520;11.284;2023-02-19T13:00:32;97997.97;;;13.78;79.61
15932;BME280;8065;49.520;11.284;2023-02-19T13:03:04;97996.66;;;13.84;79.10
15932;BME280;8065;49.520;11.284;2023-02-19T13:05:41;97992.91;;;13.97;79.26
15932;BME280;8065;49.520;11.284;2023-02-19T13:08:14;97992.66;;;13.90;79.41
15932;BME280;8065;49.520;11.284;2023-02-19T13:10:46;97996.03;;;13.99;78.96
15932;BME280;8065;49.520;11.284;2023-02-19T13:13:19;97986.94;;;14.00;78.69
15932;BME280;8065;49.520;11.284;2023-02-19T13:15:51;97996.44;;;13.89;79.75
15932;BME280;8065;49.520;11.284;2023-02-19T13:18:26;97997.38;;;13.72;79.29
15932;BME280;8065;49.520;11.284;2023-02-19T13:20:54;97993.53;;;13.61;79.87